sensor_id;sensor_type;location;lat;lon;timestamp;P1;durP1;ratioP1;P2;durP2;ratioP2
75922;SDS011;64602;47.542;19.090;2022-12-05T06:13:03;13.60;;;7.75;;
75922;SDS011;64602;47.542;19.090;2022-12-05T06:18:05;15.68;;;7.60;;
75922;SDS011;64602;47.542;19.090;2022-12-05T06:23:07;14.30;;;7.23;;
75922;SDS011;64602;47.542;19.090;2022-12-05T06:28:09;16.97;;;8.70;;
75922;SDS011;64602;47.542;19.090;2022-12-05T06:33:11;14.30;;;7.87;;
75922;SDS011;64602;47.542;19.090;2022-12-05T06:38:14;17.17;;;7.90;;
75922;SDS011;64602;47.542;19.090;2022-12-05T06:43:16;15.13;;;7.60;;
75922;SDS011;64602;47.542;19.090;2022-12-05T06:48:18;14.27;;;7.78;;
75922;SDS011;64602;47.542;19.090;2022-12-05T06:53:20;15.18;;;7.60;;
75922;SDS011;64602;47.542;19.090;2022-12-05T06:58:22;14.60;;;7.87;;
75922;SDS011;64602;47.542;19.090;2022-12-05T07:03:25;14.40;;;8.00;;
75922;SDS011;64602;47.542;19.090;2022-12-05T07:08:27;18.62;;;8.18;;
75922;SDS011;64602;47.542;19.090;2022-12-05T07:13:29;15.17;;;8.10;;
75922;SDS011;64602;47.542;19.090;2022-12-05T07:18:31;14.63;;;8.17;;
75922;SDS011;64602;47.542;19.090;2022-12-05T07:23:34;15.25;;;8.63;;
75922;SDS011;64602;47.542;19.090;2022-12-05T07:28:36;14.50;;;8.10;;
75922;SDS011;64602;47.542;19.090;2022-12-05T07:33:38;19.30;;;9.43;;
75922;SDS011;64602;47.542;19.090;2022-12-05T07:38:40;16.65;;;8.25;;
75922;SDS011;64602;47.542;19.090;2022-12-05T07:43:43;12.32;;;7.43;;
75922;SDS011;64602;47.542;19.090;2022-12-05T07:48:46;13.57;;;7.80;;
75922;SDS011;64602;47.542;19.090;2022-12-05T07:53:48;16.12;;;7.82;;
75922;SDS011;64602;47.542;19.090;2022-12-05T07:58:51;13.82;;;7.78;;
75922;SDS011;64602;47.542;19.090;2022-12-05T08:03:54;16.07;;;8.47;;
75922;SDS011;64602;47.542;19.090;2022-12-05T08:08:57;13.17;;;7.43;;
75922;SDS011;64602;47.542;19.090;2022-12-05T08:14:00;14.18;;;7.32;;
75922;SDS011;64602;47.542;19.090;2022-12-05T08:19:04;12.40;;;6.93;;
75922;SDS011;64602;47.542;19.090;2022-12-05T08:24:07;14.10;;;7.27;;
75922;SDS011;64602;47.542;19.090;2022-12-05T08:29:11;12.32;;;7.18;;
75922;SDS011;64602;47.542;19.090;2022-12-05T08:34:15;11.50;;;6.32;;
75922;SDS011;64602;47.542;19.090;2022-12-05T08:39:18;12.53;;;6.57;;
75922;SDS011;64602;47.542;19.090;2022-12-05T08:44:20;11.57;;;7.12;;
75922;SDS011;64602;47.542;19.090;2022-12-05T08:49:23;12.63;;;7.53;;
75922;SDS011;64602;47.542;19.090;2022-12-05T08:54:25;12.87;;;7.27;;
75922;SDS011;64602;47.542;19.090;2022-12-05T08:59:27;10.90;;;6.53;;
75922;SDS011;64602;47.542;19.090;2022-12-05T09:04:29;13.48;;;7.18;;
75922;SDS011;64602;47.542;19.090;2022-12-05T09:09:31;11.77;;;7.60;;
75922;SDS011;64602;47.542;19.090;2022-12-05T09:14:34;12.53;;;7.77;;
75922;SDS011;64602;47.542;19.090;2022-12-05T09:19:36;13.65;;;7.40;;
75922;SDS011;64602;47.542;19.090;2022-12-05T09:24:38;15.15;;;8.52;;
75922;SDS011;64602;47.542;19.090;2022-12-05T09:29:40;12.83;;;7.50;;
75922;SDS011;64602;47.542;19.090;2022-12-05T09:34:43;12.18;;;7.55;;
75922;SDS011;64602;47.542;19.090;2022-12-05T09:39:45;10.70;;;6.62;;
75922;SDS011;64602;47.542;19.090;2022-12-05T10:00:45;15.68;;;9.50;;
75922;SDS011;64602;47.542;19.090;2022-12-05T10:11:17;14.55;;;9.10;;
75922;SDS011;64602;47.542;19.090;2022-12-05T10:16:39;15.00;;;8.93;;
75922;SDS011;64602;47.542;19.090;2022-12-05T10:26:59;13.02;;;8.43;;
75922;SDS011;64602;47.542;19.090;2022-12-05T10:32:16;13.73;;;8.75;;
75922;SDS011;64602;47.542;19.090;2022-12-05T10:37:22;12.43;;;7.93;;
75922;SDS011;64602;47.542;19.090;2022-12-05T10:42:25;13.37;;;8.40;;
75922;SDS011;64602;47.542;19.090;2022-12-05T10:47:32;13.50;;;8.40;;
75922;SDS011;64602;47.542;19.090;2022-12-05T10:52:34;14.13;;;9.00;;
75922;SDS011;64602;47.542;19.090;2022-12-05T10:57:37;14.17;;;9.07;;
75922;SDS011;64602;47.542;19.090;2022-12-05T11:02:39;13.77;;;8.50;;
75922;SDS011;64602;47.542;19.090;2022-12-05T11:12:45;15.23;;;10.77;;
75922;SDS011;64602;47.542;19.090;2022-12-05T11:17:48;16.55;;;10.75;;
75922;SDS011;64602;47.542;19.090;2022-12-05T11:22:52;19.12;;;10.50;;
75922;SDS011;64602;47.542;19.090;2022-12-05T11:27:57;16.90;;;10.40;;
75922;SDS011;64602;47.542;19.090;2022-12-05T11:33:21;16.77;;;10.80;;
75922;SDS011;64602;47.542;19.090;2022-12-05T11:38:25;17.95;;;11.00;;
75922;SDS011;64602;47.542;19.090;2022-12-05T12:00:18;17.45;;;11.32;;
75922;SDS011;64602;47.542;19.090;2022-12-05T12:16:48;19.05;;;11.95;;
75922;SDS011;64602;47.542;19.090;2022-12-05T12:27:34;23.97;;;13.07;;
75922;SDS011;64602;47.542;19.090;2022-12-05T12:49:34;19.98;;;10.73;;
75922;SDS011;64602;47.542;19.090;2022-12-05T13:00:33;18.80;;;10.57;;
75922;SDS011;64602;47.542;19.090;2022-12-05T13:05:47;16.10;;;9.60;;
75922;SDS011;64602;47.542;19.090;2022-12-05T13:10:52;14.63;;;9.27;;
75922;SDS011;64602;47.542;19.090;2022-12-05T13:15:57;16.73;;;11.00;;
75922;SDS011;64602;47.542;19.090;2022-12-05T13:21:05;17.77;;;9.97;;
75922;SDS011;64602;47.542;19.090;2022-12-05T13:26:10;18.10;;;11.18;;
75922;SDS011;64602;47.542;19.090;2022-12-05T13:31:13;18.33;;;11.20;;
75922;SDS011;64602;47.542;19.090;2022-12-05T13:36:20;18.53;;;11.20;;
75922;SDS011;64602;47.542;19.090;2022-12-05T13:41:43;19.98;;;11.25;;
75922;SDS011;64602;47.542;19.090;2022-12-05T13:47:07;16.05;;;10.35;;
75922;SDS011;64602;47.542;19.090;2022-12-05T13:52:27;17.17;;;11.37;;
75922;SDS011;64602;47.542;19.090;2022-12-05T14:07:49;18.60;;;11.80;;
75922;SDS011;64602;47.542;19.090;2022-12-05T14:12:52;19.13;;;11.97;;
75922;SDS011;64602;47.542;19.090;2022-12-05T14:18:39;20.65;;;12.88;;
75922;SDS011;64602;47.542;19.090;2022-12-05T14:24:16;19.52;;;12.32;;
75922;SDS011;64602;47.542;19.090;2022-12-05T14:29:37;20.70;;;13.37;;
75922;SDS011;64602;47.542;19.090;2022-12-05T14:35:12;18.45;;;11.43;;
75922;SDS011;64602;47.542;19.090;2022-12-05T14:45:39;18.87;;;12.43;;
75922;SDS011;64602;47.542;19.090;2022-12-05T14:50:49;19.08;;;12.68;;
75922;SDS011;64602;47.542;19.090;2022-12-05T15:01:06;33.37;;;17.17;;
75922;SDS011;64602;47.542;19.090;2022-12-05T15:06:14;26.37;;;14.30;;
75922;SDS011;64602;47.542;19.090;2022-12-05T15:11:17;23.40;;;13.50;;
75922;SDS011;64602;47.542;19.090;2022-12-05T15:16:31;23.80;;;13.52;;
75922;SDS011;64602;47.542;19.090;2022-12-05T15:21:45;23.13;;;14.17;;
75922;SDS011;64602;47.542;19.090;2022-12-05T15:26:53;21.33;;;13.25;;
75922;SDS011;64602;47.542;19.090;2022-12-05T15:37:26;23.33;;;12.87;;
75922;SDS011;64602;47.542;19.090;2022-12-05T15:42:36;20.60;;;12.40;;
75922;SDS011;64602;47.542;19.090;2022-12-05T15:52:57;24.47;;;13.67;;
75922;SDS011;64602;47.542;19.090;2022-12-05T16:03:42;18.55;;;11.45;;
75922;SDS011;64602;47.542;19.090;2022-12-05T16:08:50;17.48;;;11.25;;
75922;SDS011;64602;47.542;19.090;2022-12-05T16:13:57;16.73;;;10.73;;
75922;SDS011;64602;47.542;19.090;2022-12-05T16:19:03;17.75;;;10.60;;
75922;SDS011;64602;47.542;19.090;2022-12-05T16:29:27;16.67;;;10.27;;
75922;SDS011;64602;47.542;19.090;2022-12-05T16:34:31;16.80;;;10.32;;
75922;SDS011;64602;47.542;19.090;2022-12-05T16:39:34;16.30;;;10.10;;
75922;SDS011;64602;47.542;19.090;2022-12-05T16:49:48;18.67;;;9.87;;
75922;SDS011;64602;47.542;19.090;2022-12-05T16:54:50;18.37;;;9.57;;
75922;SDS011;64602;47.542;19.090;2022-12-05T16:59:52;17.05;;;9.55;;
75922;SDS011;64602;47.542;19.090;2022-12-05T17:04:55;16.50;;;8.73;;
75922;SDS011;64602;47.542;19.090;2022-12-05T17:09:58;14.20;;;9.23;;
75922;SDS011;64602;47.542;19.090;2022-12-05T17:15:00;15.77;;;9.30;;
75922;SDS011;64602;47.542;19.090;2022-12-05T17:20:02;15.93;;;9.53;;
75922;SDS011;64602;47.542;19.090;2022-12-05T17:25:27;15.45;;;8.93;;
75922;SDS011;64602;47.542;19.090;2022-12-05T17:30:37;14.82;;;8.57;;
75922;SDS011;64602;47.542;19.090;2022-12-05T17:35:40;15.60;;;8.23;;
75922;SDS011;64602;47.542;19.090;2022-12-05T17:40:42;16.70;;;8.47;;
75922;SDS011;64602;47.542;19.090;2022-12-05T17:45:45;14.95;;;8.57;;
75922;SDS011;64602;47.542;19.090;2022-12-05T17:50:48;15.32;;;7.65;;
75922;SDS011;64602;47.542;19.090;2022-12-05T17:55:51;14.83;;;8.13;;
75922;SDS011;64602;47.542;19.090;2022-12-05T18:00:53;15.20;;;8.32;;
75922;SDS011;64602;47.542;19.090;2022-12-05T18:05:55;18.00;;;8.52;;
75922;SDS011;64602;47.542;19.090;2022-12-05T18:10:58;15.43;;;8.27;;
75922;SDS011;64602;47.542;19.090;2022-12-05T18:16:00;15.32;;;8.85;;
75922;SDS011;64602;47.542;19.090;2022-12-05T18:21:04;13.73;;;7.85;;
75922;SDS011;64602;47.542;19.090;2022-12-05T18:26:09;12.57;;;7.70;;
75922;SDS011;64602;47.542;19.090;2022-12-05T18:31:12;15.93;;;8.30;;
75922;SDS011;64602;47.542;19.090;2022-12-05T18:36:17;13.75;;;8.10;;
75922;SDS011;64602;47.542;19.090;2022-12-05T18:41:22;15.02;;;8.30;;
75922;SDS011;64602;47.542;19.090;2022-12-05T18:46:25;16.93;;;9.17;;
75922;SDS011;64602;47.542;19.090;2022-12-05T18:51:27;19.10;;;9.82;;
75922;SDS011;64602;47.542;19.090;2022-12-05T18:56:30;15.07;;;9.27;;
75922;SDS011;64602;47.542;19.090;2022-12-05T19:01:38;17.87;;;9.80;;
75922;SDS011;64602;47.542;19.090;2022-12-05T19:06:50;16.30;;;8.98;;
75922;SDS011;64602;47.542;19.090;2022-12-05T19:11:54;18.17;;;8.20;;
75922;SDS011;64602;47.542;19.090;2022-12-05T19:16:58;16.77;;;8.90;;
75922;SDS011;64602;47.542;19.090;2022-12-05T19:22:01;17.73;;;9.00;;
75922;SDS011;64602;47.542;19.090;2022-12-05T19:27:03;17.65;;;8.68;;
75922;SDS011;64602;47.542;19.090;2022-12-05T19:32:05;16.02;;;9.32;;
75922;SDS011;64602;47.542;19.090;2022-12-05T19:37:07;18.43;;;9.90;;
75922;SDS011;64602;47.542;19.090;2022-12-05T19:42:09;17.92;;;9.98;;
75922;SDS011;64602;47.542;19.090;2022-12-05T19:47:11;23.27;;;11.10;;
75922;SDS011;64602;47.542;19.090;2022-12-05T19:52:14;22.07;;;11.33;;
75922;SDS011;64602;47.542;19.090;2022-12-05T19:57:18;21.27;;;11.35;;
75922;SDS011;64602;47.542;19.090;2022-12-05T20:02:21;23.85;;;12.80;;
75922;SDS011;64602;47.542;19.090;2022-12-05T20:07:24;25.63;;;12.60;;
75922;SDS011;64602;47.542;19.090;2022-12-05T20:12:26;25.97;;;13.83;;
75922;SDS011;64602;47.542;19.090;2022-12-05T20:17:29;26.20;;;13.77;;
75922;SDS011;64602;47.542;19.090;2022-12-05T20:22:31;26.60;;;13.57;;
75922;SDS011;64602;47.542;19.090;2022-12-05T20:27:33;28.63;;;14.70;;
75922;SDS011;64602;47.542;19.090;2022-12-05T20:32:35;24.67;;;13.32;;
75922;SDS011;64602;47.542;19.090;2022-12-05T20:37:37;28.62;;;14.15;;
75922;SDS011;64602;47.542;19.090;2022-12-05T20:42:39;31.40;;;14.43;;
75922;SDS011;64602;47.542;19.090;2022-12-05T20:47:47;28.65;;;14.63;;
75922;SDS011;64602;47.542;19.090;2022-12-05T20:52:49;30.37;;;14.90;;
75922;SDS011;64602;47.542;19.090;2022-12-05T20:57:51;28.80;;;14.80;;
75922;SDS011;64602;47.542;19.090;2022-12-05T21:02:53;30.93;;;14.90;;
75922;SDS011;64602;47.542;19.090;2022-12-05T21:07:57;30.77;;;14.90;;
75922;SDS011;64602;47.542;19.090;2022-12-05T21:12:59;27.30;;;14.02;;
75922;SDS011;64602;47.542;19.090;2022-12-05T21:18:01;34.17;;;16.70;;
75922;SDS011;64602;47.542;19.090;2022-12-05T21:23:04;30.45;;;15.80;;
75922;SDS011;64602;47.542;19.090;2022-12-05T21:28:06;30.62;;;15.30;;
75922;SDS011;64602;47.542;19.090;2022-12-05T21:33:08;37.50;;;15.53;;
75922;SDS011;64602;47.542;19.090;2022-12-05T21:38:10;32.67;;;15.80;;
75922;SDS011;64602;47.542;19.090;2022-12-05T21:43:12;32.85;;;15.63;;
75922;SDS011;64602;47.542;19.090;2022-12-05T21:48:14;32.80;;;15.53;;
75922;SDS011;64602;47.542;19.090;2022-12-05T21:53:16;28.70;;;15.17;;
75922;SDS011;64602;47.542;19.090;2022-12-05T21:58:19;29.83;;;14.82;;
75922;SDS011;64602;47.542;19.090;2022-12-05T22:03:21;32.00;;;14.98;;
75922;SDS011;64602;47.542;19.090;2022-12-05T22:08:23;30.87;;;14.10;;
75922;SDS011;64602;47.542;19.090;2022-12-05T22:13:25;30.05;;;15.35;;
75922;SDS011;64602;47.542;19.090;2022-12-05T22:18:28;30.48;;;14.38;;
75922;SDS011;64602;47.542;19.090;2022-12-05T22:23:31;27.87;;;13.23;;
75922;SDS011;64602;47.542;19.090;2022-12-05T22:28:33;24.80;;;13.25;;
